sensor_id;sensor_type;location;lat;lon;timestamp;pressure;altitude;pressure_sealevel;temperature;humidity
44697;BME280;57264;47.480;19.354;2024-02-16T00:01:16;99768.34;;;5.97;73.25
44697;BME280;57264;47.480;19.354;2024-02-16T00:03:42;99764.91;;;5.96;73.27
44697;BME280;57264;47.480;19.354;2024-02-16T00:06:07;99769.22;;;5.96;73.30
44697;BME280;57264;47.480;19.354;2024-02-16T00:08:32;99777.81;;;5.96;72.66
44697;BME280;57264;47.480;19.354;2024-02-16T00:10:59;99776.97;;;5.94;73.42
44697;BME280;57264;47.480;19.354;2024-02-16T00:13:25;99772.66;;;5.93;73.18
44697;BME280;57264;47.480;19.354;2024-02-16T00:15:50;99769.22;;;5.93;73.53
44697;BME280;57264;47.480;19.354;2024-02-16T00:18:15;99776.97;;;5.94;73.62
44697;BME280;57264;47.480;19.354;2024-02-16T00:20:41;99768.34;;;5.95;73.36
44697;BME280;57264;47.480;19.354;2024-02-16T00:23:06;99769.22;;;5.96;72.92
44697;BME280;57264;47.480;19.354;2024-02-16T00:25:32;99771.78;;;5.96;73.57
44697;BME280;57264;47.480;19.354;2024-02-16T00:27:57;99767.47;;;5.96;73.83
44697;BME280;57264;47.480;19.354;2024-02-16T00:30:22;99765.78;;;5.95;73.66
44697;BME280;57264;47.480;19.354;2024-02-16T00:32:48;99764.91;;;5.99;72.71
44697;BME280;57264;47.480;19.354;2024-02-16T00:35:16;99757.13;;;6.07;71.90
44697;BME280;57264;47.480;19.354;2024-02-16T00:37:43;99761.38;;;6.09;71.80
44697;BME280;57264;47.480;19.354;2024-02-16T00:40:08;99751.91;;;6.13;70.99
44697;BME280;57264;47.480;19.354;2024-02-16T00:42:34;99746.75;;;6.14;71.81
44697;BME280;57264;47.480;19.354;2024-02-16T00:44:59;99752.75;;;6.16;71.17
44697;BME280;57264;47.480;19.354;2024-02-16T00:47:28;99746.72;;;6.19;71.49
44697;BME280;57264;47.480;19.354;2024-02-16T00:49:54;99745.00;;;6.18;71.50
44697;BME280;57264;47.480;19.354;2024-02-16T00:52:19;99734.69;;;6.16;71.44
44697;BME280;57264;47.480;19.354;2024-02-16T00:54:45;99739.84;;;6.18;70.88
44697;BME280;57264;47.480;19.354;2024-02-16T00:57:11;99743.28;;;6.19;71.54
44697;BME280;57264;47.480;19.354;2024-02-16T00:59:39;99745.88;;;6.15;71.67
44697;BME280;57264;47.480;19.354;2024-02-16T01:02:04;99743.31;;;6.14;71.73
44697;BME280;57264;47.480;19.354;2024-02-16T01:04:30;99747.59;;;6.15;71.83
44697;BME280;57264;47.480;19.354;2024-02-16T01:06:55;99754.47;;;6.16;71.10
44697;BME280;57264;47.480;19.354;2024-02-16T01:09:21;99753.59;;;6.19;71.35
44697;BME280;57264;47.480;19.354;2024-02-16T01:11:46;99745.00;;;6.20;70.61
44697;BME280;57264;47.480;19.354;2024-02-16T01:14:12;99750.16;;;6.20;71.53
44697;BME280;57264;47.480;19.354;2024-02-16T01:16:37;99752.69;;;6.21;71.52
44697;BME280;57264;47.480;19.354;2024-02-16T01:19:03;99751.06;;;6.11;72.14
44697;BME280;57264;47.480;19.354;2024-02-16T01:21:28;99746.81;;;6.01;72.00
44697;BME280;57264;47.480;19.354;2024-02-16T01:23:54;99744.28;;;5.96;73.04
44697;BME280;57264;47.480;19.354;2024-02-16T01:26:19;99746.00;;;5.91;73.50
44697;BME280;57264;47.480;19.354;2024-02-16T01:28:44;99758.03;;;5.89;73.72
44697;BME280;57264;47.480;19.354;2024-02-16T01:31:10;99746.00;;;5.91;72.98
44697;BME280;57264;47.480;19.354;2024-02-16T01:33:35;99742.59;;;5.92;73.47
44697;BME280;57264;47.480;19.354;2024-02-16T01:36:01;99747.72;;;5.90;73.47
44697;BME280;57264;47.480;19.354;2024-02-16T01:38:27;99746.03;;;5.86;73.88
44697;BME280;57264;47.480;19.354;2024-02-16T01:40:52;99748.66;;;5.79;74.28
44697;BME280;57264;47.480;19.354;2024-02-16T01:43:21;99748.69;;;5.74;74.10
44697;BME280;57264;47.480;19.354;2024-02-16T01:45:46;99740.06;;;5.75;74.71
44697;BME280;57264;47.480;19.354;2024-02-16T01:48:11;99744.34;;;5.76;74.34
44697;BME280;57264;47.480;19.354;2024-02-16T01:50:37;99741.81;;;5.72;74.11
44697;BME280;57264;47.480;19.354;2024-02-16T01:53:03;99741.81;;;5.68;74.56
44697;BME280;57264;47.480;19.354;2024-02-16T01:55:29;99748.69;;;5.68;74.72
44697;BME280;57264;47.480;19.354;2024-02-16T01:57:54;99736.66;;;5.68;74.50
44697;BME280;57264;47.480;19.354;2024-02-16T02:00:20;99744.41;;;5.67;74.82
44697;BME280;57264;47.480;19.354;2024-02-16T02:02:45;99742.66;;;5.66;74.10
44697;BME280;57264;47.480;19.354;2024-02-16T02:05:11;99746.16;;;5.60;75.22
44697;BME280;57264;47.480;19.354;2024-02-16T02:07:37;99733.28;;;5.56;75.13
44697;BME280;57264;47.480;19.354;2024-02-16T02:10:03;99733.28;;;5.54;75.47
44697;BME280;57264;47.480;19.354;2024-02-16T02:12:28;99733.31;;;5.51;74.87
44697;BME280;57264;47.480;19.354;2024-02-16T02:14:54;99734.16;;;5.50;74.62
44697;BME280;57264;47.480;19.354;2024-02-16T02:17:19;99733.28;;;5.54;74.18
44697;BME280;57264;47.480;19.354;2024-02-16T02:19:45;99731.59;;;5.55;74.22
44697;BME280;57264;47.480;19.354;2024-02-16T02:22:22;99732.44;;;5.55;74.53
44697;BME280;57264;47.480;19.354;2024-02-16T02:24:48;99724.69;;;5.57;73.49
44697;BME280;57264;47.480;19.354;2024-02-16T02:27:14;99719.56;;;5.55;73.81
44697;BME280;57264;47.480;19.354;2024-02-16T02:29:40;99719.53;;;5.54;73.66
44697;BME280;57264;47.480;19.354;2024-02-16T02:32:05;99732.44;;;5.52;73.47
44697;BME280;57264;47.480;19.354;2024-02-16T02:34:31;99737.59;;;5.52;73.52
44697;BME280;57264;47.480;19.354;2024-02-16T02:36:56;99728.16;;;5.53;73.09
44697;BME280;57264;47.480;19.354;2024-02-16T02:39:22;99723.00;;;5.50;73.85
44697;BME280;57264;47.480;19.354;2024-02-16T02:41:48;99723.88;;;5.47;73.73
44697;BME280;57264;47.480;19.354;2024-02-16T02:44:13;99735.91;;;5.45;74.01
44697;BME280;57264;47.480;19.354;2024-02-16T02:46:38;99728.16;;;5.45;73.29
44697;BME280;57264;47.480;19.354;2024-02-16T02:49:04;99729.91;;;5.43;73.59
44697;BME280;57264;47.480;19.354;2024-02-16T02:51:29;99723.03;;;5.42;73.25
44697;BME280;57264;47.480;19.354;2024-02-16T02:53:55;99724.75;;;5.43;73.19
44697;BME280;57264;47.480;19.354;2024-02-16T02:56:20;99721.31;;;5.44;72.25
44697;BME280;57264;47.480;19.354;2024-02-16T02:58:46;99723.91;;;5.42;72.54
44697;BME280;57264;47.480;19.354;2024-02-16T03:01:11;99720.50;;;5.39;72.95
44697;BME280;57264;47.480;19.354;2024-02-16T03:03:37;99727.31;;;5.38;72.92
44697;BME280;57264;47.480;19.354;2024-02-16T03:06:03;99719.63;;;5.35;73.34
44697;BME280;57264;47.480;19.354;2024-02-16T03:08:28;99724.78;;;5.34;73.39
44697;BME280;57264;47.480;19.354;2024-02-16T03:10:54;99719.66;;;5.29;72.71
44697;BME280;57264;47.480;19.354;2024-02-16T03:13:19;99713.69;;;5.20;73.08
44697;BME280;57264;47.480;19.354;2024-02-16T03:15:45;99726.59;;;5.09;74.07
44697;BME280;57264;47.480;19.354;2024-02-16T03:18:10;99730.03;;;5.00;74.06
44697;BME280;57264;47.480;19.354;2024-02-16T03:20:35;99725.75;;;4.87;73.84
44697;BME280;57264;47.480;19.354;2024-02-16T03:23:01;99726.69;;;4.67;74.88
44697;BME280;57264;47.480;19.354;2024-02-16T03:25:26;99725.84;;;4.52;75.50
44697;BME280;57264;47.480;19.354;2024-02-16T03:27:52;99724.09;;;4.29;76.51
44697;BME280;57264;47.480;19.354;2024-02-16T03:30:20;99724.94;;;4.11;76.61
44697;BME280;57264;47.480;19.354;2024-02-16T03:32:50;99730.06;;;3.90;77.50
44697;BME280;57264;47.480;19.354;2024-02-16T03:35:16;99728.31;;;3.75;77.64
44697;BME280;57264;47.480;19.354;2024-02-16T03:37:41;99731.69;;;3.57;77.78
44697;BME280;57264;47.480;19.354;2024-02-16T03:40:07;99737.63;;;3.47;78.35
44697;BME280;57264;47.480;19.354;2024-02-16T03:42:33;99734.16;;;3.33;78.56
44697;BME280;57264;47.480;19.354;2024-02-16T03:44:59;99738.41;;;3.31;79.40
44697;BME280;57264;47.480;19.354;2024-02-16T03:47:24;99742.72;;;3.35;80.81
44697;BME280;57264;47.480;19.354;2024-02-16T03:49:50;99737.59;;;3.38;80.38
44697;BME280;57264;47.480;19.354;2024-02-16T03:52:15;99740.16;;;3.38;82.33
44697;BME280;57264;47.480;19.354;2024-02-16T03:54:40;99731.63;;;3.37;82.73
44697;BME280;57264;47.480;19.354;2024-02-16T03:57:07;99731.63;;;3.37;83.22
44697;BME280;57264;47.480;19.354;2024-02-16T03:59:34;99736.75;;;3.37;83.21
44697;BME280;57264;47.480;19.354;2024-02-16T04:02:00;99744.44;;;3.37;83.06
44697;BME280;57264;47.480;19.354;2024-02-16T04:04:25;99740.16;;;3.33;84.02
44697;BME280;57264;47.480;19.354;2024-02-16T04:06:52;99740.97;;;3.32;83.73
44697;BME280;57264;47.480;19.354;2024-02-16T04:09:17;99746.09;;;3.26;83.96
44697;BME280;57264;47.480;19.354;2024-02-16T04:11:43;99740.09;;;3.23;84.30
44697;BME280;57264;47.480;19.354;2024-02-16T04:14:08;99744.34;;;3.20;84.19
44697;BME280;57264;47.480;19.354;2024-02-16T04:16:33;99745.19;;;3.16;84.45
44697;BME280;57264;47.480;19.354;2024-02-16T04:18:59;99752.88;;;3.12;84.81
44697;BME280;57264;47.480;19.354;2024-02-16T04:21:24;99751.16;;;3.09;84.52
44697;BME280;57264;47.480;19.354;2024-02-16T04:23:49;99751.13;;;3.06;84.47
44697;BME280;57264;47.480;19.354;2024-02-16T04:26:15;99746.00;;;3.06;84.57
44697;BME280;57264;47.480;19.354;2024-02-16T04:28:40;99748.53;;;3.05;84.13
44697;BME280;57264;47.480;19.354;2024-02-16T04:31:06;99752.00;;;3.05;84.48
44697;BME280;57264;47.480;19.354;2024-02-16T04:33:31;99746.03;;;3.09;83.73
44697;BME280;57264;47.480;19.354;2024-02-16T04:35:56;99751.97;;;3.04;84.10
44697;BME280;57264;47.480;19.354;2024-02-16T04:38:22;99747.66;;;2.98;83.89
44697;BME280;57264;47.480;19.354;2024-02-16T04:40:47;99751.94;;;3.01;83.94
44697;BME280;57264;47.480;19.354;2024-02-16T04:43:12;99757.09;;;3.02;83.68
44697;BME280;57264;47.480;19.354;2024-02-16T04:45:38;99753.66;;;2.99;83.91
44697;BME280;57264;47.480;19.354;2024-02-16T04:48:07;99753.59;;;2.91;83.99
44697;BME280;57264;47.480;19.354;2024-02-16T04:50:33;99752.72;;;2.89;83.88
44697;BME280;57264;47.480;19.354;2024-02-16T04:52:58;99751.00;;;2.88;83.74
44697;BME280;57264;47.480;19.354;2024-02-16T04:55:24;99754.47;;;2.90;83.89
44697;BME280;57264;47.480;19.354;2024-02-16T04:57:49;99755.28;;;2.89;83.92
44697;BME280;57264;47.480;19.354;2024-02-16T05:00:15;99746.75;;;2.87;83.58
44697;BME280;57264;47.480;19.354;2024-02-16T05:02:40;99753.56;;;2.86;83.47
44697;BME280;57264;47.480;19.354;2024-02-16T05:05:05;99749.31;;;2.87;83.51
44697;BME280;57264;47.480;19.354;2024-02-16T05:07:31;99757.00;;;2.87;83.60
44697;BME280;57264;47.480;19.354;2024-02-16T05:09:56;99755.28;;;2.86;83.31
44697;BME280;57264;47.480;19.354;2024-02-16T05:12:23;99763.00;;;2.90;83.18
44697;BME280;57264;47.480;19.354;2024-02-16T05:14:49;99757.03;;;2.93;83.56
44697;BME280;57264;47.480;19.354;2024-02-16T05:17:15;99761.31;;;2.91;83.05
44697;BME280;57264;47.480;19.354;2024-02-16T05:19:40;99763.81;;;2.85;82.97
44697;BME280;57264;47.480;19.354;2024-02-16T05:22:05;99764.63;;;2.81;83.45
44697;BME280;57264;47.480;19.354;2024-02-16T05:24:31;99767.16;;;2.71;83.85
44697;BME280;57264;47.480;19.354;2024-02-16T05:26:56;99769.66;;;2.62;84.04
44697;BME280;57264;47.480;19.354;2024-02-16T05:29:21;99764.50;;;2.58;84.45
44697;BME280;57264;47.480;19.354;2024-02-16T05:31:47;99761.03;;;2.57;84.05
44697;BME280;57264;47.480;19.354;2024-02-16T05:34:15;99759.34;;;2.56;84.25
44697;BME280;57264;47.480;19.354;2024-02-16T05:36:41;99761.03;;;2.57;83.75
44697;BME280;57264;47.480;19.354;2024-02-16T05:39:07;99757.69;;;2.63;83.68
44697;BME280;57264;47.480;19.354;2024-02-16T05:41:45;99765.38;;;2.64;83.43
44697;BME280;57264;47.480;19.354;2024-02-16T05:44:11;99773.06;;;2.61;83.57
44697;BME280;57264;47.480;19.354;2024-02-16T05:46:36;99767.06;;;2.58;83.37
44697;BME280;57264;47.480;19.354;2024-02-16T05:49:03;99767.09;;;2.62;82.85
44697;BME280;57264;47.480;19.354;2024-02-16T05:51:36;99764.56;;;2.67;82.84
44697;BME280;57264;47.480;19.354;2024-02-16T05:54:02;99760.31;;;2.70;82.65
44697;BME280;57264;47.480;19.354;2024-02-16T05:56:27;99769.75;;;2.75;82.29
44697;BME280;57264;47.480;19.354;2024-02-16T05:58:53;99776.59;;;2.76;82.38
44697;BME280;57264;47.480;19.354;2024-02-16T06:01:18;99781.72;;;2.74;82.18
44697;BME280;57264;47.480;19.354;2024-02-16T06:03:44;99786.00;;;2.75;82.00
44697;BME280;57264;47.480;19.354;2024-02-16T06:06:09;99785.06;;;2.68;82.03
44697;BME280;57264;47.480;19.354;2024-02-16T06:08:34;99789.38;;;2.69;81.87
44697;BME280;57264;47.480;19.354;2024-02-16T06:11:00;99787.66;;;2.71;82.14
44697;BME280;57264;47.480;19.354;2024-02-16T06:13:27;99791.09;;;2.70;82.16
44697;BME280;57264;47.480;19.354;2024-02-16T06:15:52;99789.44;;;2.79;81.36
44697;BME280;57264;47.480;19.354;2024-02-16T06:18:18;99791.22;;;2.87;81.23
44697;BME280;57264;47.480;19.354;2024-02-16T06:20:44;99792.13;;;2.95;80.53
44697;BME280;57264;47.480;19.354;2024-02-16T06:23:10;99799.13;;;3.18;80.14
44697;BME280;57264;47.480;19.354;2024-02-16T06:25:35;99795.00;;;3.48;78.87
44697;BME280;57264;47.480;19.354;2024-02-16T06:28:01;99795.06;;;3.67;77.74
44697;BME280;57264;47.480;19.354;2024-02-16T06:30:27;99800.34;;;4.07;76.08
44697;BME280;57264;47.480;19.354;2024-02-16T06:32:53;99798.69;;;4.34;74.09
44697;BME280;57264;47.480;19.354;2024-02-16T06:35:20;99802.13;;;4.36;74.14
44697;BME280;57264;47.480;19.354;2024-02-16T06:37:45;99803.84;;;4.32;73.75
44697;BME280;57264;47.480;19.354;2024-02-16T06:40:11;99808.09;;;4.26;74.22
44697;BME280;57264;47.480;19.354;2024-02-16T06:42:37;99803.81;;;4.25;73.77
44697;BME280;57264;47.480;19.354;2024-02-16T06:45:02;99805.56;;;4.41;73.71
44697;BME280;57264;47.480;19.354;2024-02-16T06:47:30;99803.84;;;4.74;72.63
44697;BME280;57264;47.480;19.354;2024-02-16T06:49:56;99809.84;;;5.09;70.48
44697;BME280;57264;47.480;19.354;2024-02-16T06:52:21;99808.94;;;5.30;69.26
44697;BME280;57264;47.480;19.354;2024-02-16T06:54:47;99805.56;;;5.19;69.48
44697;BME280;57264;47.480;19.354;2024-02-16T06:57:12;99821.84;;;5.10;69.73
44697;BME280;57264;47.480;19.354;2024-02-16T06:59:37;99822.69;;;5.22;69.78
44697;BME280;57264;47.480;19.354;2024-02-16T07:02:03;99824.41;;;5.35;69.00
44697;BME280;57264;47.480;19.354;2024-02-16T07:04:28;99829.50;;;5.49;68.34
44697;BME280;57264;47.480;19.354;2024-02-16T07:06:53;99826.03;;;5.57;67.75
44697;BME280;57264;47.480;19.354;2024-02-16T07:09:19;99825.13;;;5.74;67.46
44697;BME280;57264;47.480;19.354;2024-02-16T07:11:45;99834.63;;;5.67;66.68
44697;BME280;57264;47.480;19.354;2024-02-16T07:14:12;99836.31;;;5.70;65.81
44697;BME280;57264;47.480;19.354;2024-02-16T07:16:38;99838.09;;;5.58;66.91
44697;BME280;57264;47.480;19.354;2024-02-16T07:19:03;99832.06;;;5.53;66.50
44697;BME280;57264;47.480;19.354;2024-02-16T07:21:30;99830.38;;;5.55;66.53
44697;BME280;57264;47.480;19.354;2024-02-16T07:23:55;99835.50;;;5.63;67.04
44697;BME280;57264;47.480;19.354;2024-02-16T07:26:20;99843.22;;;5.71;67.10
44697;BME280;57264;47.480;19.354;2024-02-16T07:28:46;99838.84;;;5.83;65.52
44697;BME280;57264;47.480;19.354;2024-02-16T07:31:11;99834.50;;;6.01;64.49
44697;BME280;57264;47.480;19.354;2024-02-16T07:33:36;99841.31;;;6.15;62.36
44697;BME280;57264;47.480;19.354;2024-02-16T07:36:02;99844.75;;;6.19;63.15
44697;BME280;57264;47.480;19.354;2024-02-16T07:38:28;99839.53;;;6.27;62.59
44697;BME280;57264;47.480;19.354;2024-02-16T07:40:53;99839.50;;;6.33;62.62
44697;BME280;57264;47.480;19.354;2024-02-16T07:43:19;99847.22;;;6.39;62.60
44697;BME280;57264;47.480;19.354;2024-02-16T07:45:44;99842.03;;;6.42;61.75
44697;BME280;57264;47.480;19.354;2024-02-16T07:48:10;99840.28;;;6.47;61.49
44697;BME280;57264;47.480;19.354;2024-02-16T07:50:35;99836.78;;;6.54;61.99
44697;BME280;57264;47.480;19.354;2024-02-16T07:53:00;99838.50;;;6.55;62.51
44697;BME280;57264;47.480;19.354;2024-02-16T07:55:26;99839.31;;;6.62;62.46
44697;BME280;57264;47.480;19.354;2024-02-16T07:57:51;99831.53;;;6.68;61.53
44697;BME280;57264;47.480;19.354;2024-02-16T08:00:17;99835.78;;;6.72;61.54
44697;BME280;57264;47.480;19.354;2024-02-16T08:02:42;99840.09;;;6.75;62.38
44697;BME280;57264;47.480;19.354;2024-02-16T08:05:11;99838.38;;;6.74;61.19
44697;BME280;57264;47.480;19.354;2024-02-16T08:07:38;99834.91;;;6.75;61.55
44697;BME280;57264;47.480;19.354;2024-02-16T08:10:03;99830.56;;;6.80;61.34
44697;BME280;57264;47.480;19.354;2024-02-16T08:12:29;99830.50;;;6.87;60.53
44697;BME280;57264;47.480;19.354;2024-02-16T08:14:56;99832.16;;;6.96;61.57
44697;BME280;57264;47.480;19.354;2024-02-16T08:17:23;99831.31;;;6.97;60.48
44697;BME280;57264;47.480;19.354;2024-02-16T08:19:52;99834.63;;;7.08;59.77
44697;BME280;57264;47.480;19.354;2024-02-16T08:22:21;99831.16;;;7.11;58.77
44697;BME280;57264;47.480;19.354;2024-02-16T08:24:46;99826.00;;;7.11;59.04
44697;BME280;57264;47.480;19.354;2024-02-16T08:27:12;99822.50;;;7.18;59.28
44697;BME280;57264;47.480;19.354;2024-02-16T08:29:38;99825.84;;;7.28;59.03
44697;BME280;57264;47.480;19.354;2024-02-16T08:32:04;99829.06;;;7.48;58.81
44697;BME280;57264;47.480;19.354;2024-02-16T08:34:31;99829.88;;;7.52;57.60
44697;BME280;57264;47.480;19.354;2024-02-16T08:36:56;99834.16;;;7.57;57.00
44697;BME280;57264;47.480;19.354;2024-02-16T08:39:22;99840.94;;;7.69;57.37
44697;BME280;57264;47.480;19.354;2024-02-16T08:41:50;99839.16;;;7.71;57.26
44697;BME280;57264;47.480;19.354;2024-02-16T08:44:16;99840.78;;;7.80;56.98
44697;BME280;57264;47.480;19.354;2024-02-16T08:46:41;99838.19;;;7.81;56.40
44697;BME280;57264;47.480;19.354;2024-02-16T08:49:06;99841.69;;;7.77;56.88
44697;BME280;57264;47.480;19.354;2024-02-16T08:51:32;99843.41;;;7.78;57.39
44697;BME280;57264;47.480;19.354;2024-02-16T08:53:58;99847.63;;;7.85;58.22
44697;BME280;57264;47.480;19.354;2024-02-16T08:56:23;99847.59;;;7.87;58.01
44697;BME280;57264;47.480;19.354;2024-02-16T08:58:49;99840.59;;;7.95;56.96
44697;BME280;57264;47.480;19.354;2024-02-16T09:01:14;99852.72;;;7.93;55.93
44697;BME280;57264;47.480;19.354;2024-02-16T09:03:41;99853.47;;;8.01;55.03
44697;BME280;57264;47.480;19.354;2024-02-16T09:06:07;99848.19;;;8.07;54.80
44697;BME280;57264;47.480;19.354;2024-02-16T09:08:32;99847.31;;;8.10;54.70
44697;BME280;57264;47.480;19.354;2024-02-16T09:11:00;99846.44;;;8.11;54.28
44697;BME280;57264;47.480;19.354;2024-02-16T09:13:30;99842.91;;;8.20;55.35
44697;BME280;57264;47.480;19.354;2024-02-16T09:15:55;99847.16;;;8.24;55.39
44697;BME280;57264;47.480;19.354;2024-02-16T09:18:20;99843.59;;;8.31;55.54
44697;BME280;57264;47.480;19.354;2024-02-16T09:20:46;99850.47;;;8.33;54.79
44697;BME280;57264;47.480;19.354;2024-02-16T09:23:11;99854.84;;;8.28;53.42
44697;BME280;57264;47.480;19.354;2024-02-16T09:25:36;99853.16;;;8.26;55.68
44697;BME280;57264;47.480;19.354;2024-02-16T09:28:02;99853.88;;;8.40;55.75
44697;BME280;57264;47.480;19.354;2024-02-16T09:30:28;99862.44;;;8.44;54.99
44697;BME280;57264;47.480;19.354;2024-02-16T09:32:54;99857.16;;;8.50;54.77
44697;BME280;57264;47.480;19.354;2024-02-16T09:35:20;99862.31;;;8.53;55.64
44697;BME280;57264;47.480;19.354;2024-02-16T09:37:45;99858.13;;;8.44;54.98
44697;BME280;57264;47.480;19.354;2024-02-16T09:40:13;99853.78;;;8.43;56.34
44697;BME280;57264;47.480;19.354;2024-02-16T09:42:39;99856.22;;;8.57;56.94
44697;BME280;57264;47.480;19.354;2024-02-16T09:45:07;99863.94;;;8.58;56.55
44697;BME280;57264;47.480;19.354;2024-02-16T09:47:33;99861.19;;;8.69;56.35
44697;BME280;57264;47.480;19.354;2024-02-16T09:50:00;99859.50;;;8.67;56.08
44697;BME280;57264;47.480;19.354;2024-02-16T09:52:25;99855.13;;;8.70;56.54
44697;BME280;57264;47.480;19.354;2024-02-16T09:54:51;99856.06;;;8.68;56.34
44697;BME280;57264;47.480;19.354;2024-02-16T09:57:17;99858.41;;;8.83;56.47
44697;BME280;57264;47.480;19.354;2024-02-16T09:59:42;99854.09;;;8.83;56.30
44697;BME280;57264;47.480;19.354;2024-02-16T10:02:08;99862.75;;;8.81;55.87
44697;BME280;57264;47.480;19.354;2024-02-16T10:04:34;99860.13;;;8.84;56.21
44697;BME280;57264;47.480;19.354;2024-02-16T10:06:59;99865.94;;;8.97;55.46
44697;BME280;57264;47.480;19.354;2024-02-16T10:09:25;99860.78;;;8.97;55.84
44697;BME280;57264;47.480;19.354;2024-02-16T10:11:51;99860.69;;;9.01;55.42
44697;BME280;57264;47.480;19.354;2024-02-16T10:14:17;99864.81;;;9.15;55.51
44697;BME280;57264;47.480;19.354;2024-02-16T10:16:44;99861.47;;;9.06;55.49
44697;BME280;57264;47.480;19.354;2024-02-16T10:19:10;99857.84;;;9.17;56.29
44697;BME280;57264;47.480;19.354;2024-02-16T10:21:37;99859.41;;;9.27;56.40
44697;BME280;57264;47.480;19.354;2024-02-16T10:24:10;99855.75;;;9.37;55.65
44697;BME280;57264;47.480;19.354;2024-02-16T10:26:44;99851.69;;;9.22;54.72
44697;BME280;57264;47.480;19.354;2024-02-16T10:29:22;99849.78;;;9.33;54.55
44697;BME280;57264;47.480;19.354;2024-02-16T10:31:49;99845.56;;;9.28;55.10
44697;BME280;57264;47.480;19.354;2024-02-16T10:34:15;99841.91;;;9.38;55.27
44697;BME280;57264;47.480;19.354;2024-02-16T10:36:41;99840.09;;;9.43;54.62
44697;BME280;57264;47.480;19.354;2024-02-16T10:39:07;99840.91;;;9.45;54.37
44697;BME280;57264;47.480;19.354;2024-02-16T10:41:35;99831.47;;;9.43;54.73
44697;BME280;57264;47.480;19.354;2024-02-16T10:44:02;99822.81;;;9.42;54.71
44697;BME280;57264;47.480;19.354;2024-02-16T10:46:28;99822.72;;;9.48;55.68
44697;BME280;57264;47.480;19.354;2024-02-16T10:48:54;99826.84;;;9.57;54.56
44697;BME280;57264;47.480;19.354;2024-02-16T10:51:28;99825.97;;;9.59;54.71
44697;BME280;57264;47.480;19.354;2024-02-16T10:53:57;99814.53;;;9.68;55.63
44697;BME280;57264;47.480;19.354;2024-02-16T10:56:27;99810.94;;;9.75;55.51
44697;BME280;57264;47.480;19.354;2024-02-16T10:58:55;99807.50;;;9.73;54.80
44697;BME280;57264;47.480;19.354;2024-02-16T11:01:20;99806.59;;;9.76;55.99
44697;BME280;57264;47.480;19.354;2024-02-16T11:03:47;99809.09;;;9.82;55.10
44697;BME280;57264;47.480;19.354;2024-02-16T11:06:15;99809.88;;;9.84;54.72
44697;BME280;57264;47.480;19.354;2024-02-16T11:08:43;99797.91;;;9.77;54.34
44697;BME280;57264;47.480;19.354;2024-02-16T11:11:09;99804.66;;;9.87;56.06
44697;BME280;57264;47.480;19.354;2024-02-16T11:13:38;99802.75;;;9.94;55.99
44697;BME280;57264;47.480;19.354;2024-02-16T11:16:08;99802.69;;;9.97;55.10
44697;BME280;57264;47.480;19.354;2024-02-16T11:18:37;99796.56;;;10.01;55.43
44697;BME280;57264;47.480;19.354;2024-02-16T11:21:04;99793.66;;;10.15;56.01
44697;BME280;57264;47.480;19.354;2024-02-16T11:23:32;99794.69;;;10.07;54.80
44697;BME280;57264;47.480;19.354;2024-02-16T11:26:20;99791.78;;;10.21;56.04
44697;BME280;57264;47.480;19.354;2024-02-16T11:28:44;99793.38;;;10.30;55.63
44697;BME280;57264;47.480;19.354;2024-02-16T11:31:10;99793.16;;;10.39;55.01
44697;BME280;57264;47.480;19.354;2024-02-16T11:33:42;99784.63;;;10.34;53.89
44697;BME280;57264;47.480;19.354;2024-02-16T11:36:08;99784.75;;;10.28;54.54
44697;BME280;57264;47.480;19.354;2024-02-16T11:38:33;99772.78;;;10.19;53.62
44697;BME280;57264;47.480;19.354;2024-02-16T11:41:02;99772.84;;;10.18;54.33
44697;BME280;57264;47.480;19.354;2024-02-16T11:43:29;99777.00;;;10.26;53.76
44697;BME280;57264;47.480;19.354;2024-02-16T11:45:54;99764.81;;;10.28;54.48
44697;BME280;57264;47.480;19.354;2024-02-16T11:48:20;99769.88;;;10.34;54.06
44697;BME280;57264;47.480;19.354;2024-02-16T11:50:50;99776.81;;;10.34;53.02
44697;BME280;57264;47.480;19.354;2024-02-16T11:53:23;99778.59;;;10.32;53.13
44697;BME280;57264;47.480;19.354;2024-02-16T11:55:49;99769.91;;;10.33;53.54
44697;BME280;57264;47.480;19.354;2024-02-16T11:58:18;99771.66;;;10.32;53.71
44697;BME280;57264;47.480;19.354;2024-02-16T12:00:44;99774.13;;;10.37;54.74
44697;BME280;57264;47.480;19.354;2024-02-16T12:03:10;99763.00;;;10.33;53.78
44697;BME280;57264;47.480;19.354;2024-02-16T12:05:35;99765.50;;;10.37;53.75
44697;BME280;57264;47.480;19.354;2024-02-16T12:08:01;99762.81;;;10.40;53.93
44697;BME280;57264;47.480;19.354;2024-02-16T12:10:26;99752.66;;;10.30;53.33
44697;BME280;57264;47.480;19.354;2024-02-16T12:12:56;99749.88;;;10.38;54.76
44697;BME280;57264;47.480;19.354;2024-02-16T12:15:23;99748.03;;;10.43;53.85
44697;BME280;57264;47.480;19.354;2024-02-16T12:18:00;99739.22;;;10.49;53.71
44697;BME280;57264;47.480;19.354;2024-02-16T12:21:02;99745.25;;;10.51;53.65
44697;BME280;57264;47.480;19.354;2024-02-16T12:23:29;99749.59;;;10.50;54.07
44697;BME280;57264;47.480;19.354;2024-02-16T12:26:00;99737.50;;;10.49;53.71
44697;BME280;57264;47.480;19.354;2024-02-16T12:28:29;99742.69;;;10.49;53.32
44697;BME280;57264;47.480;19.354;2024-02-16T12:30:55;99735.75;;;10.48;53.99
44697;BME280;57264;47.480;19.354;2024-02-16T12:33:24;99741.72;;;10.53;54.42
44697;BME280;57264;47.480;19.354;2024-02-16T12:35:50;99739.97;;;10.54;53.61
44697;BME280;57264;47.480;19.354;2024-02-16T12:38:16;99730.56;;;10.48;53.55
44697;BME280;57264;47.480;19.354;2024-02-16T12:40:45;99734.78;;;10.54;54.63
44697;BME280;57264;47.480;19.354;2024-02-16T12:43:10;99729.59;;;10.54;54.34
44697;BME280;57264;47.480;19.354;2024-02-16T12:45:36;99722.56;;;10.57;54.16
44697;BME280;57264;47.480;19.354;2024-02-16T12:48:02;99724.09;;;10.65;54.58
44697;BME280;57264;47.480;19.354;2024-02-16T12:50:29;99725.00;;;10.64;53.83
44697;BME280;57264;47.480;19.354;2024-02-16T12:52:54;99726.69;;;10.66;54.48
44697;BME280;57264;47.480;19.354;2024-02-16T12:55:19;99719.63;;;10.71;54.96